createdAt,value
2023-02-06T00:00:05.151Z,0
2023-02-06T00:01:19.551Z,0
2023-02-06T00:02:33.875Z,0
2023-02-06T00:03:48.152Z,0
2023-02-06T00:05:02.495Z,0
2023-02-06T00:06:16.903Z,0
2023-02-06T00:07:31.241Z,0
2023-02-06T00:08:44.602Z,0
2023-02-06T00:09:58.994Z,0
2023-02-06T00:11:13.404Z,0
2023-02-06T00:12:27.733Z,0
2023-02-06T00:13:42.003Z,0
2023-02-06T00:14:56.292Z,0
2023-02-06T00:16:10.700Z,0
2023-02-06T00:17:25.017Z,0
2023-02-06T00:18:39.311Z,0
2023-02-06T00:19:53.597Z,0
2023-02-06T00:21:07.992Z,0
2023-02-06T00:22:22.314Z,0
2023-02-06T00:23:36.610Z,0
2023-02-06T00:24:50.887Z,0
2023-02-06T00:26:05.288Z,0
2023-02-06T00:27:19.613Z,0
2023-02-06T00:28:33.906Z,0
2023-02-06T00:29:48.182Z,0
2023-02-06T00:31:02.584Z,0
2023-02-06T00:32:16.909Z,0
2023-02-06T00:33:31.199Z,0
2023-02-06T00:34:45.479Z,0
2023-02-06T00:35:59.893Z,0
2023-02-06T00:37:14.219Z,0
2023-02-06T00:38:28.498Z,0
2023-02-06T00:39:42.772Z,0
2023-02-06T00:40:57.176Z,0
2023-02-06T00:42:11.514Z,0
2023-02-06T00:45:54.484Z,0
2023-02-06T00:47:08.800Z,0
2023-02-06T00:49:37.360Z,0
2023-02-06T00:50:51.762Z,0
2023-02-06T00:52:06.089Z,0
2023-02-06T00:53:20.384Z,0
2023-02-06T00:54:34.662Z,0
2023-02-06T00:55:49.134Z,0
2023-02-06T00:57:03.459Z,0
2023-02-06T00:58:17.811Z,0
2023-02-06T00:59:31.199Z,0
2023-02-06T01:00:45.618Z,0
2023-02-06T01:01:59.946Z,0
2023-02-06T01:03:13.299Z,0
2023-02-06T01:04:27.575Z,0
2023-02-06T01:05:41.997Z,0
2023-02-06T01:06:56.306Z,0
2023-02-06T01:08:10.598Z,0
2023-02-06T01:09:24.881Z,0
2023-02-06T01:10:39.293Z,0
2023-02-06T01:11:53.613Z,0
2023-02-06T01:13:07.882Z,0
2023-02-06T01:14:22.165Z,0
2023-02-06T01:15:36.581Z,0
2023-02-06T01:16:50.906Z,0
2023-02-06T01:18:05.184Z,0
2023-02-06T01:19:19.459Z,0
2023-02-06T01:20:33.883Z,0
2023-02-06T01:21:48.194Z,0
2023-02-06T01:23:02.480Z,0
2023-02-06T01:24:16.760Z,0
2023-02-06T01:25:31.116Z,0
2023-02-06T01:26:45.361Z,0
2023-02-06T01:27:59.580Z,0
2023-02-06T01:29:13.807Z,0
2023-02-06T01:30:28.098Z,0
2023-02-06T01:31:42.505Z,0
2023-02-06T01:32:56.839Z,0
2023-02-06T01:34:11.174Z,0
2023-02-06T01:35:24.577Z,0
2023-02-06T01:36:38.907Z,0
2023-02-06T01:37:52.304Z,0
2023-02-06T01:39:06.637Z,0
2023-02-06T01:41:35.379Z,0
2023-02-06T01:42:48.741Z,0
2023-02-06T01:44:03.020Z,0
2023-02-06T01:45:17.433Z,0
2023-02-06T01:46:31.758Z,0
2023-02-06T01:47:46.044Z,0
2023-02-06T01:49:00.325Z,0
2023-02-06T01:50:14.729Z,0
2023-02-06T01:51:29.058Z,0
2023-02-06T01:52:43.331Z,0
2023-02-06T01:53:57.608Z,0
2023-02-06T01:55:12.030Z,0
2023-02-06T01:56:26.340Z,0
2023-02-06T01:57:40.626Z,0
2023-02-06T01:58:54.901Z,0
2023-02-06T02:00:09.323Z,0
2023-02-06T02:01:23.640Z,0
2023-02-06T02:02:37.931Z,0
2023-02-06T02:03:52.199Z,0
2023-02-06T02:05:06.614Z,0
2023-02-06T02:07:35.220Z,0
2023-02-06T02:08:49.491Z,0
2023-02-06T02:10:03.905Z,0
2023-02-06T02:11:18.228Z,0
2023-02-06T02:12:32.521Z,0
2023-02-06T02:13:46.859Z,0
2023-02-06T02:15:01.272Z,0
2023-02-06T02:16:15.593Z,0
2023-02-06T02:17:28.955Z,0
2023-02-06T02:19:57.651Z,0
2023-02-06T02:21:11.972Z,0
2023-02-06T02:22:26.243Z,0
2023-02-06T02:23:40.534Z,0
2023-02-06T02:26:09.264Z,0
2023-02-06T02:27:23.542Z,0
2023-02-06T02:28:37.819Z,0
2023-02-06T02:29:52.225Z,0
2023-02-06T02:31:06.564Z,0
2023-02-06T02:32:20.844Z,0
2023-02-06T02:33:35.114Z,0
2023-02-06T02:34:49.518Z,0
2023-02-06T02:36:03.857Z,0
2023-02-06T02:37:18.129Z,0
2023-02-06T02:38:32.408Z,0
2023-02-06T02:39:46.826Z,0
2023-02-06T02:41:01.149Z,0
2023-02-06T02:42:15.422Z,0
2023-02-06T02:43:29.702Z,0
2023-02-06T02:44:44.126Z,0
2023-02-06T02:45:58.440Z,0
2023-02-06T02:47:12.725Z,0
2023-02-06T02:48:27.073Z,0
2023-02-06T02:49:41.482Z,0
2023-02-06T02:50:55.819Z,0
2023-02-06T02:52:10.149Z,0
2023-02-06T02:53:23.499Z,0
2023-02-06T02:54:37.908Z,0
2023-02-06T02:55:52.240Z,0
2023-02-06T02:57:06.520Z,0
2023-02-06T02:58:20.797Z,0
2023-02-06T02:59:35.196Z,0
2023-02-06T03:00:49.498Z,0
2023-02-06T03:02:03.772Z,0
2023-02-06T03:03:18.069Z,0
2023-02-06T03:04:32.472Z,0
2023-02-06T03:05:46.802Z,0
2023-02-06T03:07:01.067Z,0
2023-02-06T03:08:15.359Z,0
2023-02-06T03:09:29.758Z,0
2023-02-06T03:10:44.084Z,0
2023-02-06T03:11:58.365Z,0
2023-02-06T03:13:12.644Z,0
2023-02-06T03:14:27.062Z,0
2023-02-06T03:15:41.386Z,0
2023-02-06T03:16:55.668Z,0
2023-02-06T03:18:09.955Z,0
2023-02-06T03:20:38.677Z,0
2023-02-06T03:21:52.957Z,0
2023-02-06T03:23:07.246Z,0
2023-02-06T03:24:21.716Z,0
2023-02-06T03:25:36.055Z,0
2023-02-06T03:26:50.397Z,0
2023-02-06T03:28:03.733Z,0
2023-02-06T03:29:18.153Z,0
2023-02-06T03:30:32.478Z,0
2023-02-06T03:31:46.744Z,0
2023-02-06T03:34:15.452Z,0
2023-02-06T03:35:29.000Z,0
2023-02-06T03:36:44.049Z,0
2023-02-06T03:37:58.323Z,0
2023-02-06T03:39:12.747Z,0
2023-02-06T03:40:27.059Z,0
2023-02-06T03:41:41.345Z,0
2023-02-06T03:42:55.617Z,0
2023-02-06T03:44:10.036Z,0
2023-02-06T03:45:24.354Z,0
2023-02-06T03:46:38.639Z,0
2023-02-06T03:47:52.924Z,0
2023-02-06T03:49:07.331Z,0
2023-02-06T03:50:21.647Z,0
2023-02-06T03:51:35.941Z,0
2023-02-06T03:52:50.220Z,0
2023-02-06T03:54:04.621Z,0
2023-02-06T03:55:18.956Z,0
2023-02-06T03:56:33.236Z,0
2023-02-06T03:57:47.512Z,0
2023-02-06T03:59:01.976Z,0
2023-02-06T04:00:16.315Z,0
2023-02-06T04:01:29.672Z,0
2023-02-06T04:02:43.952Z,0
2023-02-06T04:03:58.362Z,0
2023-02-06T04:05:12.676Z,0
2023-02-06T04:06:26.968Z,0
2023-02-06T04:07:41.250Z,0
2023-02-06T04:08:55.659Z,0
2023-02-06T04:10:09.977Z,0
2023-02-06T04:11:24.255Z,0
2023-02-06T04:12:38.537Z,0
2023-02-06T04:13:52.949Z,0
2023-02-06T04:15:07.265Z,0
2023-02-06T04:16:21.545Z,0
2023-02-06T04:17:35.837Z,0
2023-02-06T04:18:50.245Z,0
2023-02-06T04:20:04.560Z,0
2023-02-06T04:21:18.845Z,0
2023-02-06T04:22:33.134Z,0
2023-02-06T04:23:47.549Z,0
2023-02-06T04:25:01.875Z,0
2023-02-06T04:26:16.147Z,0
2023-02-06T04:27:30.421Z,0
2023-02-06T04:28:44.828Z,0
2023-02-06T04:29:59.166Z,0
2023-02-06T04:31:13.450Z,0
2023-02-06T04:32:27.783Z,0
2023-02-06T04:33:42.186Z,0
2023-02-06T04:34:56.519Z,0
2023-02-06T04:36:09.887Z,0
2023-02-06T04:37:24.164Z,0
2023-02-06T04:38:38.568Z,0
2023-02-06T04:39:52.887Z,0
2023-02-06T04:41:07.167Z,0
2023-02-06T04:42:21.465Z,0
2023-02-06T04:43:35.859Z,0
2023-02-06T04:44:50.193Z,0
2023-02-06T04:46:04.476Z,0
2023-02-06T04:47:18.762Z,0
2023-02-06T04:48:33.160Z,0
2023-02-06T04:49:47.491Z,0
2023-02-06T04:51:01.774Z,0
2023-02-06T04:52:16.081Z,0
2023-02-06T04:53:30.364Z,0
2023-02-06T04:54:44.782Z,0
2023-02-06T04:55:59.109Z,0
2023-02-06T04:57:13.388Z,0
2023-02-06T04:58:27.665Z,0
2023-02-06T04:59:42.086Z,0
2023-02-06T05:00:56.403Z,0
2023-02-06T05:02:10.686Z,0
2023-02-06T05:03:24.960Z,0
2023-02-06T05:04:39.376Z,0
2023-02-06T05:05:53.693Z,0
2023-02-06T05:07:08.030Z,0
2023-02-06T05:08:21.442Z,0
2023-02-06T05:09:35.855Z,0
2023-02-06T05:10:50.148Z,0
2023-02-06T05:12:04.421Z,0
2023-02-06T05:13:18.837Z,0
2023-02-06T05:14:33.155Z,0
2023-02-06T05:15:47.430Z,0
2023-02-06T05:17:01.716Z,0
2023-02-06T05:19:30.342Z,0
2023-02-06T05:20:44.613Z,0
2023-02-06T05:21:58.846Z,0
2023-02-06T05:23:13.123Z,0
2023-02-06T05:24:27.526Z,0
2023-02-06T05:25:41.766Z,0
2023-02-06T05:26:56.002Z,0
2023-02-06T05:28:10.286Z,0
2023-02-06T05:29:24.575Z,0
2023-02-06T05:30:38.968Z,0
2023-02-06T05:31:53.302Z,0
2023-02-06T05:33:07.585Z,0
2023-02-06T05:34:21.870Z,0
2023-02-06T05:35:36.262Z,0
2023-02-06T05:36:50.589Z,0
2023-02-06T05:38:04.871Z,0
2023-02-06T05:39:19.146Z,0
2023-02-06T05:40:33.616Z,0
2023-02-06T05:41:47.952Z,0
2023-02-06T05:43:01.302Z,0
2023-02-06T05:44:15.589Z,0
2023-02-06T05:45:30.000Z,0
2023-02-06T05:46:44.322Z,0
2023-02-06T05:47:58.612Z,0
2023-02-06T05:49:12.897Z,0
2023-02-06T05:50:27.294Z,0
2023-02-06T05:51:41.615Z,0
2023-02-06T05:52:55.846Z,0
2023-02-06T05:54:10.180Z,0
2023-02-06T05:55:24.443Z,0
2023-02-06T05:57:53.103Z,0
2023-02-06T05:59:07.338Z,0
2023-02-06T06:00:21.567Z,0
2023-02-06T06:01:35.792Z,0
2023-02-06T06:02:50.203Z,0
2023-02-06T06:04:04.443Z,0
2023-02-06T06:05:18.719Z,0
2023-02-06T06:06:32.993Z,0
2023-02-06T06:07:47.406Z,0
2023-02-06T06:09:01.726Z,0
2023-02-06T06:10:16.024Z,0
2023-02-06T06:11:30.305Z,0
2023-02-06T06:12:44.698Z,0
2023-02-06T06:13:59.079Z,0
2023-02-06T06:15:12.467Z,0
2023-02-06T06:16:25.824Z,0
2023-02-06T06:18:54.382Z,0
2023-02-06T06:20:08.609Z,0
2023-02-06T06:21:22.837Z,0
2023-02-06T06:23:51.384Z,0
2023-02-06T06:26:19.936Z,0
2023-02-06T06:27:34.213Z,0
2023-02-06T06:28:48.574Z,0
2023-02-06T06:30:02.812Z,0
2023-02-06T06:31:17.041Z,0
2023-02-06T06:32:31.253Z,0
2023-02-06T06:33:45.487Z,0
2023-02-06T06:34:59.781Z,0
2023-02-06T06:36:14.039Z,0
2023-02-06T06:37:28.253Z,0
2023-02-06T06:38:42.494Z,0
2023-02-06T06:39:56.722Z,0
2023-02-06T06:41:11.013Z,0
2023-02-06T06:42:25.265Z,0
2023-02-06T06:43:39.491Z,0
2023-02-06T06:44:53.724Z,0
2023-02-06T06:46:07.950Z,0
2023-02-06T06:47:22.297Z,0
2023-02-06T06:48:36.593Z,0
2023-02-06T06:49:49.877Z,0
2023-02-06T06:51:04.100Z,0
2023-02-06T06:53:32.649Z,0
2023-02-06T06:54:46.886Z,0
2023-02-06T06:56:01.109Z,0
2023-02-06T06:57:15.326Z,5
2023-02-06T06:58:29.638Z,5
2023-02-06T06:59:43.881Z,5
2023-02-06T07:00:58.100Z,5
2023-02-06T07:02:12.331Z,5
2023-02-06T07:03:26.564Z,5
2023-02-06T07:04:40.860Z,5
2023-02-06T07:05:55.099Z,11
2023-02-06T07:07:09.321Z,11
2023-02-06T07:08:23.547Z,11
2023-02-06T07:09:37.787Z,11
2023-02-06T07:10:52.074Z,16
2023-02-06T07:12:06.331Z,16
2023-02-06T07:13:20.560Z,16
2023-02-06T07:14:34.782Z,22
2023-02-06T07:15:49.018Z,22
2023-02-06T07:17:03.300Z,22
2023-02-06T07:18:17.562Z,28
2023-02-06T07:19:31.775Z,22
2023-02-06T07:20:46.057Z,28
2023-02-06T07:22:00.343Z,28
2023-02-06T07:23:14.646Z,22
2023-02-06T07:24:28.942Z,28
2023-02-06T07:25:42.230Z,33
2023-02-06T07:26:56.462Z,39
2023-02-06T07:28:10.759Z,45
2023-02-06T07:29:25.007Z,39
2023-02-06T07:30:39.230Z,39
2023-02-06T07:31:53.454Z,45
2023-02-06T07:33:07.687Z,45
2023-02-06T07:34:21.971Z,39
2023-02-06T07:35:36.222Z,39
2023-02-06T07:36:50.439Z,39
2023-02-06T07:38:04.682Z,39
2023-02-06T07:39:18.910Z,39
2023-02-06T07:40:33.198Z,39
2023-02-06T07:41:47.449Z,39
2023-02-06T07:43:01.672Z,39
2023-02-06T07:44:15.890Z,39
2023-02-06T07:45:30.124Z,45
2023-02-06T07:46:44.432Z,56
2023-02-06T07:47:58.660Z,56
2023-02-06T07:49:12.882Z,50
2023-02-06T07:50:27.111Z,50
2023-02-06T07:51:41.339Z,50
2023-02-06T07:52:55.651Z,50
2023-02-06T07:54:09.894Z,50
2023-02-06T07:55:24.110Z,56
2023-02-06T07:56:38.401Z,67
2023-02-06T07:57:51.694Z,73
2023-02-06T07:59:05.926Z,73
2023-02-06T08:00:20.157Z,67
2023-02-06T08:01:34.396Z,67
2023-02-06T08:02:48.622Z,67
2023-02-06T08:04:02.914Z,73
2023-02-06T08:05:17.153Z,73
2023-02-06T08:06:31.393Z,78
2023-02-06T08:07:45.607Z,84
2023-02-06T08:08:59.840Z,95
2023-02-06T08:10:14.144Z,95
2023-02-06T08:11:28.371Z,95
2023-02-06T08:12:42.601Z,101
2023-02-06T08:13:56.836Z,95
2023-02-06T08:15:11.056Z,90
2023-02-06T08:16:25.356Z,84
2023-02-06T08:17:39.596Z,84
2023-02-06T08:18:53.828Z,84
2023-02-06T08:20:08.061Z,84
2023-02-06T08:21:22.275Z,95
2023-02-06T08:22:36.582Z,101
2023-02-06T08:23:50.825Z,101
2023-02-06T08:25:05.056Z,101
2023-02-06T08:26:19.269Z,101
2023-02-06T08:27:33.506Z,101
2023-02-06T08:28:47.867Z,106
2023-02-06T08:30:02.159Z,112
2023-02-06T08:31:15.444Z,112
2023-02-06T08:32:29.668Z,123
2023-02-06T08:33:43.961Z,123
2023-02-06T08:34:58.204Z,123
2023-02-06T08:36:12.440Z,135
2023-02-06T08:37:26.666Z,140
2023-02-06T08:38:40.884Z,140
2023-02-06T08:39:55.198Z,135
2023-02-06T08:41:09.435Z,129
2023-02-06T08:42:23.656Z,135
2023-02-06T08:43:37.887Z,140
2023-02-06T08:44:52.115Z,146
2023-02-06T08:46:06.412Z,163
2023-02-06T08:47:20.667Z,168
2023-02-06T08:48:34.888Z,163
2023-02-06T08:49:49.109Z,146
2023-02-06T08:51:03.339Z,140
2023-02-06T08:52:17.638Z,129
2023-02-06T08:53:31.882Z,129
2023-02-06T08:54:46.116Z,140
2023-02-06T08:56:00.345Z,140
2023-02-06T08:57:14.567Z,140
2023-02-06T08:58:28.867Z,129
2023-02-06T08:59:43.104Z,129
2023-02-06T09:00:57.325Z,140
2023-02-06T09:02:11.618Z,135
2023-02-06T09:03:24.956Z,112
2023-02-06T09:04:39.228Z,106
2023-02-06T09:05:52.583Z,112
2023-02-06T09:07:05.927Z,123
2023-02-06T09:08:20.201Z,123
2023-02-06T09:09:34.494Z,135
2023-02-06T09:10:47.777Z,135
2023-02-06T09:13:16.326Z,168
2023-02-06T09:14:30.547Z,185
2023-02-06T09:15:44.785Z,168
2023-02-06T09:16:59.012Z,151
2023-02-06T09:18:13.301Z,140
2023-02-06T09:19:27.559Z,123
2023-02-06T09:20:41.780Z,118
2023-02-06T09:21:56.005Z,106
2023-02-06T09:23:10.239Z,95
2023-02-06T09:24:24.527Z,95
2023-02-06T09:25:38.764Z,95
2023-02-06T09:26:53.003Z,101
2023-02-06T09:28:07.233Z,106
2023-02-06T09:29:21.458Z,112
2023-02-06T09:30:35.763Z,106
2023-02-06T09:31:49.986Z,106
2023-02-06T09:33:04.231Z,106
2023-02-06T09:34:18.446Z,118
2023-02-06T09:35:32.667Z,129
2023-02-06T09:36:46.980Z,123
2023-02-06T09:38:01.221Z,129
2023-02-06T09:39:15.452Z,129
2023-02-06T09:40:29.666Z,140
2023-02-06T09:41:43.950Z,135
2023-02-06T09:42:58.267Z,129
2023-02-06T09:44:12.548Z,140
2023-02-06T09:45:25.849Z,135
2023-02-06T09:46:40.059Z,135
2023-02-06T09:47:54.364Z,135
2023-02-06T09:49:08.619Z,135
2023-02-06T09:50:22.837Z,129
2023-02-06T09:51:37.068Z,123
2023-02-06T09:52:51.301Z,123
2023-02-06T09:54:05.588Z,123
2023-02-06T09:55:19.841Z,135
2023-02-06T09:56:34.062Z,146
2023-02-06T09:57:48.289Z,123
2023-02-06T09:59:02.516Z,112
2023-02-06T10:00:16.813Z,118
2023-02-06T10:01:31.047Z,135
2023-02-06T10:02:45.292Z,163
2023-02-06T10:03:59.511Z,202
2023-02-06T10:05:13.746Z,202
2023-02-06T10:07:42.284Z,225
2023-02-06T10:08:56.506Z,241
2023-02-06T10:10:10.729Z,253
2023-02-06T10:11:24.954Z,247
2023-02-06T10:12:39.266Z,264
2023-02-06T10:13:53.508Z,241
2023-02-06T10:15:07.728Z,219
2023-02-06T10:16:22.010Z,236
2023-02-06T10:17:35.345Z,230
2023-02-06T10:18:49.635Z,247
2023-02-06T10:20:02.925Z,208
2023-02-06T10:21:17.160Z,185
2023-02-06T10:22:31.463Z,168
2023-02-06T10:23:45.696Z,168
2023-02-06T10:24:59.916Z,180
2023-02-06T10:26:14.140Z,180
2023-02-06T10:27:28.370Z,157
2023-02-06T10:28:42.669Z,174
2023-02-06T10:29:56.921Z,185
2023-02-06T10:31:11.145Z,168
2023-02-06T10:32:25.379Z,146
2023-02-06T10:33:39.597Z,157
2023-02-06T10:34:53.892Z,146
2023-02-06T10:36:08.146Z,135
2023-02-06T10:37:22.371Z,146
2023-02-06T10:38:36.586Z,163
2023-02-06T10:41:05.126Z,168
2023-02-06T10:42:19.374Z,185
2023-02-06T10:43:33.584Z,191
2023-02-06T10:44:47.822Z,202
2023-02-06T10:46:02.051Z,196
2023-02-06T10:47:16.352Z,202
2023-02-06T10:48:30.579Z,174
2023-02-06T10:49:44.822Z,174
2023-02-06T10:50:59.102Z,185
2023-02-06T10:52:13.377Z,180
2023-02-06T10:53:27.684Z,180
2023-02-06T10:54:41.976Z,202
2023-02-06T10:55:55.272Z,191
2023-02-06T10:57:09.487Z,180
2023-02-06T10:58:23.791Z,146
2023-02-06T10:59:38.027Z,123
2023-02-06T11:00:52.265Z,95
2023-02-06T11:02:06.480Z,112
2023-02-06T11:03:20.720Z,174
2023-02-06T11:04:35.009Z,168
2023-02-06T11:05:49.251Z,168
2023-02-06T11:07:03.476Z,174
2023-02-06T11:08:17.708Z,185
2023-02-06T11:09:31.926Z,202
2023-02-06T11:10:46.239Z,202
2023-02-06T11:12:00.482Z,213
2023-02-06T11:13:14.697Z,219
2023-02-06T11:14:28.933Z,208
2023-02-06T11:15:43.149Z,202
2023-02-06T11:16:57.462Z,202
2023-02-06T11:18:11.691Z,196
2023-02-06T11:19:25.923Z,168
2023-02-06T11:20:40.158Z,157
2023-02-06T11:21:54.377Z,151
2023-02-06T11:23:08.675Z,151
2023-02-06T11:24:22.930Z,146
2023-02-06T11:25:37.152Z,146
2023-02-06T11:26:51.429Z,151
2023-02-06T11:28:04.764Z,151
2023-02-06T11:29:19.057Z,146
2023-02-06T11:30:33.424Z,157
2023-02-06T11:31:47.645Z,151
2023-02-06T11:33:01.864Z,157
2023-02-06T11:34:16.173Z,185
2023-02-06T11:35:30.410Z,208
2023-02-06T11:36:44.637Z,208
2023-02-06T11:37:58.860Z,196
2023-02-06T11:39:13.099Z,185
2023-02-06T11:40:27.395Z,180
2023-02-06T11:41:41.643Z,191
2023-02-06T11:44:10.087Z,157
2023-02-06T11:45:24.316Z,151
2023-02-06T11:46:38.610Z,157
2023-02-06T11:47:52.849Z,151
2023-02-06T11:49:07.085Z,140
2023-02-06T11:50:21.306Z,146
2023-02-06T11:51:35.538Z,174
2023-02-06T11:52:49.844Z,174
2023-02-06T11:54:04.074Z,157
2023-02-06T11:55:18.316Z,157
2023-02-06T11:56:32.534Z,185
2023-02-06T11:57:46.763Z,219
2023-02-06T11:59:01.053Z,258
2023-02-06T12:00:15.000Z,315
2023-02-06T12:01:29.580Z,388
2023-02-06T12:02:42.922Z,405
2023-02-06T12:03:57.211Z,410
2023-02-06T12:05:11.497Z,399
2023-02-06T12:07:39.028Z,286
2023-02-06T12:08:53.333Z,275
2023-02-06T12:10:07.562Z,286
2023-02-06T12:11:21.787Z,298
2023-02-06T12:12:36.019Z,292
2023-02-06T12:13:50.248Z,286
2023-02-06T12:15:04.539Z,219
2023-02-06T12:17:33.010Z,146
2023-02-06T12:18:47.254Z,163
2023-02-06T12:20:01.470Z,163
2023-02-06T12:21:15.780Z,146
2023-02-06T12:22:30.005Z,185
2023-02-06T12:23:44.237Z,241
2023-02-06T12:24:58.458Z,286
2023-02-06T12:26:12.698Z,303
2023-02-06T12:27:27.001Z,326
2023-02-06T12:28:41.233Z,337
2023-02-06T12:29:55.456Z,320
2023-02-06T12:31:09.685Z,444
2023-02-06T12:32:23.906Z,444
2023-02-06T12:33:38.214Z,348
2023-02-06T12:34:52.462Z,382
2023-02-06T12:36:06.677Z,343
2023-02-06T12:37:20.968Z,298
2023-02-06T12:38:34.296Z,320
2023-02-06T12:39:48.575Z,416
2023-02-06T12:41:01.884Z,641
2023-02-06T12:42:16.111Z,331
2023-02-06T12:43:30.408Z,281
2023-02-06T12:44:44.642Z,253
2023-02-06T12:45:58.885Z,275
2023-02-06T12:47:13.106Z,281
2023-02-06T12:48:27.337Z,320
2023-02-06T12:50:55.873Z,466
2023-02-06T12:52:10.089Z,393
2023-02-06T12:53:24.316Z,371
2023-02-06T12:54:38.558Z,354
2023-02-06T12:57:07.095Z,241
2023-02-06T12:58:21.320Z,230
2023-02-06T12:59:35.541Z,236
2023-02-06T13:00:49.772Z,219
2023-02-06T13:03:18.312Z,320
2023-02-06T13:04:32.545Z,281
2023-02-06T13:05:46.778Z,213
2023-02-06T13:07:00.000Z,326
2023-02-06T13:08:15.300Z,433
2023-02-06T13:09:29.537Z,225
2023-02-06T13:10:43.756Z,365
2023-02-06T13:11:58.048Z,258
2023-02-06T13:13:11.336Z,303
2023-02-06T13:14:25.593Z,376
2023-02-06T13:15:39.822Z,388
2023-02-06T13:16:54.043Z,376
2023-02-06T13:18:08.274Z,331
2023-02-06T13:19:22.562Z,478
2023-02-06T13:20:36.813Z,1096
2023-02-06T13:21:51.043Z,528
2023-02-06T13:23:05.252Z,421
2023-02-06T13:24:19.488Z,292
2023-02-06T13:25:33.785Z,405
2023-02-06T13:26:48.025Z,315
2023-02-06T13:28:02.262Z,354
2023-02-06T13:29:16.476Z,281
2023-02-06T13:30:30.717Z,348
2023-02-06T13:31:45.016Z,348
2023-02-06T13:32:59.248Z,376
2023-02-06T13:34:13.469Z,450
2023-02-06T13:35:27.710Z,450
2023-02-06T13:36:41.930Z,455
2023-02-06T13:37:56.228Z,365
2023-02-06T13:39:10.469Z,241
2023-02-06T13:40:24.698Z,292
2023-02-06T13:41:38.924Z,213
2023-02-06T13:42:53.150Z,258
2023-02-06T13:44:07.502Z,253
2023-02-06T13:45:21.789Z,292
2023-02-06T13:47:49.425Z,427
2023-02-06T13:49:03.728Z,298
2023-02-06T13:50:18.022Z,438
2023-02-06T13:51:31.307Z,556
2023-02-06T13:52:45.539Z,196
2023-02-06T13:53:59.829Z,309
2023-02-06T13:55:14.079Z,371
2023-02-06T13:56:28.312Z,315
2023-02-06T13:57:42.530Z,601
2023-02-06T13:58:56.767Z,455
2023-02-06T14:00:11.052Z,264
2023-02-06T14:01:25.298Z,326
2023-02-06T14:02:39.526Z,320
2023-02-06T14:03:53.757Z,337
2023-02-06T14:05:07.989Z,281
2023-02-06T14:06:22.273Z,618
2023-02-06T14:07:36.521Z,444
2023-02-06T14:08:50.751Z,388
2023-02-06T14:10:04.973Z,365
2023-02-06T14:11:19.202Z,320
2023-02-06T14:12:33.500Z,292
2023-02-06T14:13:47.739Z,264
2023-02-06T14:16:16.190Z,253
2023-02-06T14:17:30.430Z,281
2023-02-06T14:18:44.730Z,247
2023-02-06T14:19:58.964Z,253
2023-02-06T14:21:13.185Z,213
2023-02-06T14:22:27.482Z,208
2023-02-06T14:23:40.827Z,264
2023-02-06T14:24:55.103Z,219
2023-02-06T14:26:09.383Z,247
2023-02-06T14:27:22.690Z,241
2023-02-06T14:28:36.977Z,253
2023-02-06T14:29:51.230Z,253
2023-02-06T14:31:05.452Z,275
2023-02-06T14:32:19.683Z,270
2023-02-06T14:33:33.907Z,213
2023-02-06T14:34:48.205Z,185
2023-02-06T14:36:02.443Z,163
2023-02-06T14:37:16.676Z,157
2023-02-06T14:38:30.894Z,168
2023-02-06T14:39:45.130Z,168
2023-02-06T14:40:59.426Z,180
2023-02-06T14:42:13.676Z,174
2023-02-06T14:43:27.900Z,185
2023-02-06T14:44:42.123Z,191
2023-02-06T14:45:56.347Z,196
2023-02-06T14:47:10.645Z,202
2023-02-06T14:50:53.350Z,208
2023-02-06T14:52:07.559Z,196
2023-02-06T14:53:21.865Z,185
2023-02-06T14:54:36.111Z,174
2023-02-06T14:55:50.346Z,163
2023-02-06T14:57:04.555Z,163
2023-02-06T14:58:18.859Z,163
2023-02-06T14:59:33.152Z,163
2023-02-06T15:00:47.425Z,151
2023-02-06T15:02:00.729Z,151
2023-02-06T15:03:14.949Z,140
2023-02-06T15:04:29.259Z,140
2023-02-06T15:05:43.504Z,140
2023-02-06T15:06:57.718Z,135
2023-02-06T15:08:11.959Z,168
2023-02-06T15:09:26.293Z,157
2023-02-06T15:10:40.000Z,123
2023-02-06T15:11:54.850Z,163
2023-02-06T15:13:09.064Z,151
2023-02-06T15:14:23.289Z,129
2023-02-06T15:15:37.528Z,118
2023-02-06T15:16:51.828Z,106
2023-02-06T15:18:06.065Z,112
2023-02-06T15:19:20.282Z,151
2023-02-06T15:20:34.511Z,168
2023-02-06T15:21:48.738Z,135
2023-02-06T15:23:03.048Z,112
2023-02-06T15:24:17.280Z,101
2023-02-06T15:25:31.504Z,106
2023-02-06T15:26:45.739Z,101
2023-02-06T15:27:59.972Z,95
2023-02-06T15:29:14.259Z,78
2023-02-06T15:30:28.515Z,67
2023-02-06T15:31:42.873Z,67
2023-02-06T15:32:57.109Z,56
2023-02-06T15:34:11.331Z,50
2023-02-06T15:35:25.627Z,56
2023-02-06T15:36:39.880Z,56
2023-02-06T15:37:54.101Z,61
2023-02-06T15:39:08.332Z,61
2023-02-06T15:40:22.555Z,56
2023-02-06T15:41:36.850Z,56
2023-02-06T15:42:51.084Z,56
2023-02-06T15:44:05.328Z,50
2023-02-06T15:45:19.539Z,50
2023-02-06T15:46:33.771Z,50
2023-02-06T15:49:02.310Z,45
2023-02-06T15:50:16.549Z,45
2023-02-06T15:51:30.763Z,45
2023-02-06T15:52:45.002Z,45
2023-02-06T15:53:59.297Z,39
2023-02-06T15:55:13.543Z,39
2023-02-06T15:56:27.763Z,39
2023-02-06T15:57:42.000Z,39
2023-02-06T15:58:56.211Z,33
2023-02-06T16:00:10.512Z,33
2023-02-06T16:02:39.039Z,33
2023-02-06T16:03:52.345Z,28
2023-02-06T16:05:06.648Z,28
2023-02-06T16:06:20.884Z,28
2023-02-06T16:07:35.116Z,22
2023-02-06T16:08:49.345Z,22
2023-02-06T16:10:03.556Z,22
2023-02-06T16:11:17.872Z,16
2023-02-06T16:12:32.112Z,16
2023-02-06T16:13:46.329Z,16
2023-02-06T16:15:00.554Z,16
2023-02-06T16:16:14.781Z,16
2023-02-06T16:17:29.076Z,16
2023-02-06T16:18:43.318Z,11
2023-02-06T16:19:57.557Z,11
2023-02-06T16:21:11.774Z,11
2023-02-06T16:22:26.012Z,11
2023-02-06T16:23:40.309Z,11
2023-02-06T16:24:54.551Z,5
2023-02-06T16:26:08.775Z,5
2023-02-06T16:27:23.000Z,5
2023-02-06T16:28:37.234Z,5
2023-02-06T16:29:51.536Z,5
2023-02-06T16:31:05.777Z,5
2023-02-06T16:32:19.990Z,0
2023-02-06T16:33:34.223Z,0
2023-02-06T16:34:48.520Z,0
2023-02-06T16:36:02.803Z,0
2023-02-06T16:38:31.373Z,0
2023-02-06T16:39:45.809Z,0
2023-02-06T16:40:59.137Z,0
2023-02-06T16:42:13.423Z,0
2023-02-06T16:43:26.772Z,0
2023-02-06T16:44:41.063Z,0
2023-02-06T16:45:55.354Z,0
2023-02-06T16:47:09.630Z,0
2023-02-06T16:48:22.971Z,0
2023-02-06T16:49:37.250Z,0
2023-02-06T16:50:51.550Z,0
2023-02-06T16:52:05.848Z,0
2023-02-06T16:53:20.123Z,0
2023-02-06T16:54:34.400Z,0
2023-02-06T16:55:48.698Z,0
2023-02-06T16:57:03.090Z,0
2023-02-06T16:58:17.436Z,0
2023-02-06T16:59:30.751Z,0
2023-02-06T17:01:59.438Z,0
2023-02-06T17:03:13.758Z,0
2023-02-06T17:04:28.048Z,0
2023-02-06T17:05:42.314Z,0
2023-02-06T17:06:56.000Z,0
2023-02-06T17:08:11.054Z,0
2023-02-06T17:09:25.331Z,0
2023-02-06T17:10:39.618Z,0
2023-02-06T17:11:54.030Z,0
2023-02-06T17:13:08.347Z,0
2023-02-06T17:14:22.626Z,0
2023-02-06T17:16:51.320Z,0
2023-02-06T17:18:05.640Z,0
2023-02-06T17:19:19.915Z,0
2023-02-06T17:20:34.196Z,0
2023-02-06T17:21:48.547Z,0
2023-02-06T17:24:17.035Z,0
2023-02-06T17:25:31.242Z,0
2023-02-06T17:26:45.469Z,0
2023-02-06T17:27:59.784Z,0
2023-02-06T17:29:14.023Z,0
2023-02-06T17:31:42.665Z,0
2023-02-06T17:32:56.898Z,0
2023-02-06T17:34:11.189Z,0
2023-02-06T17:35:25.446Z,0
2023-02-06T17:36:39.676Z,0
2023-02-06T17:37:53.884Z,0
2023-02-06T17:40:22.422Z,0
2023-02-06T17:41:36.661Z,0
2023-02-06T17:42:50.880Z,0
2023-02-06T17:44:05.108Z,0
2023-02-06T17:45:19.350Z,0
2023-02-06T17:46:33.648Z,0
2023-02-06T17:47:47.880Z,0
2023-02-06T17:49:02.103Z,0
2023-02-06T17:50:16.338Z,0
2023-02-06T17:51:30.572Z,0
2023-02-06T17:52:44.859Z,0
2023-02-06T17:55:13.337Z,0
2023-02-06T17:56:27.550Z,0
2023-02-06T17:57:41.786Z,0
2023-02-06T17:58:56.076Z,0
2023-02-06T18:00:10.324Z,0
2023-02-06T18:01:24.608Z,0
2023-02-06T18:02:37.942Z,0
2023-02-06T18:03:52.248Z,0
2023-02-06T18:05:06.536Z,0
2023-02-06T18:06:20.803Z,0
2023-02-06T18:07:35.088Z,0
2023-02-06T18:08:49.384Z,0
2023-02-06T18:11:18.077Z,0
2023-02-06T18:12:31.358Z,0
2023-02-06T18:13:45.601Z,0
2023-02-06T18:14:59.883Z,0
2023-02-06T18:16:14.129Z,0
2023-02-06T18:17:28.356Z,0
2023-02-06T18:18:42.595Z,0
2023-02-06T18:19:56.811Z,0
2023-02-06T18:21:11.124Z,0
2023-02-06T18:22:25.364Z,0
2023-02-06T18:23:39.577Z,0
2023-02-06T18:24:53.811Z,0
2023-02-06T18:26:08.039Z,0
2023-02-06T18:27:22.340Z,0
2023-02-06T18:28:36.574Z,0